Time,TemperatureF,DewpointF,PressureIn,WindDirection,WindDirectionDegrees,WindSpeedMPH,WindSpeedGustMPH,Humidity,HourlyPrecipIn,Conditions,Clouds,dailyrainin,SoftwareType,DateUTC
2013-11-23 00:00:00,50.6,47.2,29.98,West,274,3.0,3.0,88,0.00,,,0.02,Wunderground v.1.15,2013-11-23 05:00:00,
2013-11-23 00:05:00,50.4,47.0,29.98,West,271,2.0,3.0,88,0.00,,,0.00,Wunderground v.1.15,2013-11-23 05:05:00,
2013-11-23 00:10:00,50.1,46.7,29.98,WNW,284,1.0,2.0,88,0.00,,,0.00,Wunderground v.1.15,2013-11-23 05:10:00,
2013-11-23 00:15:00,50.0,46.3,29.98,West,273,2.0,2.0,87,0.00,,,0.00,Wunderground v.1.15,2013-11-23 05:15:00,
2013-11-23 00:19:00,50.1,46.1,29.98,NNW,329,2.0,3.0,86,0.00,,,0.00,Wunderground v.1.15,2013-11-23 05:19:00,
2013-11-23 00:24:00,50.3,45.6,29.98,NNE,20,2.0,3.0,84,0.00,,,0.00,Wunderground v.1.15,2013-11-23 05:24:00,
2013-11-23 00:30:00,50.5,45.5,29.99,North,11,3.0,3.0,83,0.00,,,0.00,Wunderground v.1.15,2013-11-23 05:30:00,
2013-11-23 00:39:00,50.3,44.4,29.99,WNW,297,3.0,3.0,80,0.00,,,0.00,Wunderground v.1.15,2013-11-23 05:39:00,
2013-11-23 00:45:00,50.2,43.9,29.99,West,271,3.0,3.0,79,0.00,,,0.00,Wunderground v.1.15,2013-11-23 05:45:00,
2013-11-23 00:54:00,49.9,43.3,29.99,West,261,2.0,3.0,78,0.00,,,0.00,Wunderground v.1.15,2013-11-23 05:54:00,
2013-11-23 01:00:00,49.6,43.0,29.98,NNE,15,2.0,2.0,78,0.00,,,0.00,Wunderground v.1.15,2013-11-23 06:00:00,
2013-11-23 01:09:00,49.1,42.2,29.99,North,5,3.0,3.0,77,0.00,,,0.00,Wunderground v.1.15,2013-11-23 06:09:00,
2013-11-23 01:15:00,48.9,41.7,30.00,NW,306,3.0,3.0,76,0.00,,,0.00,Wunderground v.1.15,2013-11-23 06:15:00,
2013-11-23 01:25:00,48.5,40.6,30.00,NW,306,2.0,3.0,74,0.00,,,0.00,Wunderground v.1.15,2013-11-23 06:25:00,
2013-11-23 01:30:00,48.2,39.9,30.01,NNE,14,2.0,2.0,73,0.00,,,0.00,Wunderground v.1.15,2013-11-23 06:30:00,
2013-11-23 01:40:00,47.7,39.1,30.01,NW,309,2.0,2.0,72,0.00,,,0.00,Wunderground v.1.15,2013-11-23 06:40:00,
2013-11-23 01:45:00,47.4,38.8,30.01,North,9,2.0,3.0,72,0.00,,,0.00,Wunderground v.1.15,2013-11-23 06:45:00,
2013-11-23 01:55:00,46.9,38.0,30.01,WNW,302,3.0,3.0,71,0.00,,,0.00,Wunderground v.1.15,2013-11-23 06:55:00,
2013-11-23 02:00:00,46.6,37.7,30.01,West,276,2.0,3.0,71,0.00,,,0.00,Wunderground v.1.15,2013-11-23 07:00:00,
2013-11-23 02:09:00,46.2,37.3,30.01,North,350,2.0,4.0,71,0.00,,,0.00,Wunderground v.1.15,2013-11-23 07:09:00,
2013-11-23 02:15:00,45.9,37.4,30.01,West,281,1.0,4.0,72,0.00,,,0.00,Wunderground v.1.15,2013-11-23 07:15:00,
2013-11-23 02:24:00,45.5,36.6,30.02,North,355,1.0,4.0,71,0.00,,,0.00,Wunderground v.1.15,2013-11-23 07:24:00,
2013-11-23 02:30:00,45.2,36.7,30.02,NW,310,1.0,2.0,72,0.00,,,0.00,Wunderground v.1.15,2013-11-23 07:30:00,
2013-11-23 02:39:00,45.1,35.2,30.03,WSW,257,2.0,2.0,68,0.00,,,0.00,Wunderground v.1.15,2013-11-23 07:39:00,
2013-11-23 02:45:00,45.0,35.1,30.03,West,269,2.0,2.0,68,0.00,,,0.00,Wunderground v.1.15,2013-11-23 07:45:00,
2013-11-23 02:54:00,44.6,34.3,30.02,West,278,1.0,1.0,67,0.00,,,0.00,Wunderground v.1.15,2013-11-23 07:54:00,
2013-11-23 03:00:00,44.4,34.9,30.02,West,271,1.0,1.0,69,0.00,,,0.00,Wunderground v.1.15,2013-11-23 08:00:00,
2013-11-23 03:10:00,43.8,34.3,30.03,NE,53,0.0,0.0,69,0.00,,,0.00,Wunderground v.1.15,2013-11-23 08:10:00,
2013-11-23 03:15:00,43.4,32.8,30.03,North,5,2.0,2.0,66,0.00,,,0.00,Wunderground v.1.15,2013-11-23 08:15:00,
2013-11-23 03:25:00,43.3,32.3,30.03,NW,309,2.0,2.0,65,0.00,,,0.00,Wunderground v.1.15,2013-11-23 08:25:00,
2013-11-23 03:30:00,43.2,32.2,30.03,NNE,22,1.0,1.0,65,0.00,,,0.00,Wunderground v.1.15,2013-11-23 08:30:00,
2013-11-23 03:40:00,43.0,32.4,30.03,NNW,340,1.0,1.0,66,0.00,,,0.00,Wunderground v.1.15,2013-11-23 08:40:00,
2013-11-23 03:45:00,42.8,32.2,30.03,WNW,290,1.0,1.0,66,0.00,,,0.00,Wunderground v.1.15,2013-11-23 08:45:00,
2013-11-23 03:55:00,42.6,32.8,30.04,WNW,282,1.0,2.0,68,0.00,,,0.00,Wunderground v.1.15,2013-11-23 08:55:00,
2013-11-23 04:00:00,42.5,32.3,30.04,West,266,2.0,3.0,67,0.00,,,0.00,Wunderground v.1.15,2013-11-23 09:00:00,
2013-11-23 04:09:00,42.3,31.7,30.05,NW,319,2.0,2.0,66,0.00,,,0.00,Wunderground v.1.15,2013-11-23 09:09:00,
2013-11-23 04:15:00,42.1,32.3,30.05,West,269,2.0,3.0,68,0.00,,,0.00,Wunderground v.1.15,2013-11-23 09:15:00,
2013-11-23 04:25:00,41.7,31.9,30.06,SSW,203,1.0,7.0,68,0.00,,,0.00,Wunderground v.1.15,2013-11-23 09:25:00,
2013-11-23 04:30:00,41.3,30.8,30.05,NNW,333,2.0,3.0,66,0.00,,,0.00,Wunderground v.1.15,2013-11-23 09:30:00,
2013-11-23 04:39:00,41.0,30.5,30.06,WNW,294,1.0,1.0,66,0.00,,,0.00,Wunderground v.1.15,2013-11-23 09:39:00,
2013-11-23 04:45:00,40.7,29.8,30.05,NNE,12,0.0,1.0,65,0.00,,,0.00,Wunderground v.1.15,2013-11-23 09:45:00,
2013-11-23 04:54:00,40.2,30.1,30.06,South,189,1.0,1.0,67,0.00,,,0.00,Wunderground v.1.15,2013-11-23 09:54:00,
2013-11-23 05:00:00,39.8,30.1,30.06,SSW,201,1.0,2.0,68,0.00,,,0.00,Wunderground v.1.15,2013-11-23 10:00:00,
2013-11-23 05:09:00,39.6,29.5,30.07,West,277,1.0,1.0,67,0.00,,,0.00,Wunderground v.1.15,2013-11-23 10:09:00,
2013-11-23 05:15:00,39.4,29.3,30.07,SW,222,2.0,2.0,67,0.00,,,0.00,Wunderground v.1.15,2013-11-23 10:15:00,
2013-11-23 05:25:00,39.3,29.6,30.06,WSW,251,1.0,3.0,68,0.00,,,0.00,Wunderground v.1.15,2013-11-23 10:25:00,
2013-11-23 05:30:00,39.2,28.8,30.07,NE,56,1.0,1.0,66,0.00,,,0.00,Wunderground v.1.15,2013-11-23 10:30:00,
2013-11-23 05:40:00,38.6,28.9,30.08,NNE,23,1.0,2.0,68,0.00,,,0.00,Wunderground v.1.15,2013-11-23 10:40:00,
2013-11-23 05:45:00,38.6,28.6,30.08,NE,42,2.0,2.0,67,0.00,,,0.00,Wunderground v.1.15,2013-11-23 10:45:00,
2013-11-23 05:54:00,38.5,28.9,30.08,NNE,26,2.0,2.0,68,0.00,,,0.00,Wunderground v.1.15,2013-11-23 10:54:00,
2013-11-23 06:00:00,38.3,28.7,30.09,ENE,74,2.0,2.0,68,0.00,,,0.00,Wunderground v.1.15,2013-11-23 11:00:00,
2013-11-23 06:09:00,38.0,28.0,30.09,NNW,346,2.0,2.0,67,0.00,,,0.00,Wunderground v.1.15,2013-11-23 11:09:00,
2013-11-23 06:15:00,37.9,28.3,30.09,NNW,344,2.0,2.0,68,0.00,,,0.00,Wunderground v.1.15,2013-11-23 11:15:00,
2013-11-23 06:24:00,37.1,27.5,30.10,NE,55,2.0,3.0,68,0.00,,,0.00,Wunderground v.1.15,2013-11-23 11:24:00,
2013-11-23 06:30:00,36.8,27.2,30.10,NE,51,2.0,2.0,68,0.00,,,0.00,Wunderground v.1.15,2013-11-23 11:30:00,
2013-11-23 06:40:00,36.4,26.1,30.11,NW,320,2.0,4.0,66,0.00,,,0.00,Wunderground v.1.15,2013-11-23 11:40:00,
2013-11-23 06:45:00,36.3,26.0,30.11,WNW,298,2.0,4.0,66,0.00,,,0.00,Wunderground v.1.15,2013-11-23 11:45:00,
2013-11-23 06:55:00,35.9,26.0,30.11,ENE,59,1.0,1.0,67,0.00,,,0.00,Wunderground v.1.15,2013-11-23 11:55:00,
2013-11-23 07:00:00,35.8,25.9,30.11,NE,38,2.0,2.0,67,0.00,,,0.00,Wunderground v.1.15,2013-11-23 12:00:00,
2013-11-23 07:10:00,35.5,26.0,30.11,NE,38,1.0,1.0,68,0.00,,,0.00,Wunderground v.1.15,2013-11-23 12:10:00,
2013-11-23 07:15:00,35.3,26.1,30.11,NE,38,0.0,1.0,69,0.00,,,0.00,Wunderground v.1.15,2013-11-23 12:15:00,
2013-11-23 07:24:00,35.0,27.2,30.11,ENE,76,0.0,0.0,73,0.00,,,0.00,Wunderground v.1.15,2013-11-23 12:24:00,
2013-11-23 07:30:00,34.7,26.3,30.12,ESE,123,0.0,1.0,71,0.00,,,0.00,Wunderground v.1.15,2013-11-23 12:30:00,
2013-11-23 07:39:00,34.4,26.0,30.12,West,277,0.0,0.0,71,0.00,,,0.00,Wunderground v.1.15,2013-11-23 12:39:00,
2013-11-23 07:45:00,34.5,26.7,30.12,NE,42,1.0,1.0,73,0.00,,,0.00,Wunderground v.1.15,2013-11-23 12:45:00,
2013-11-23 07:54:00,34.9,26.1,30.13,ENE,59,1.0,1.0,70,0.00,,,0.00,Wunderground v.1.15,2013-11-23 12:54:00,
2013-11-23 08:00:00,35.1,25.6,30.13,NNW,340,0.0,0.0,68,0.00,,,0.00,Wunderground v.1.15,2013-11-23 13:00:00,
2013-11-23 08:09:00,35.7,25.4,30.13,NW,320,1.0,1.0,66,0.00,,,0.00,Wunderground v.1.15,2013-11-23 13:09:00,
2013-11-23 08:15:00,36.0,25.4,30.13,NW,306,1.0,1.0,65,0.00,,,0.00,Wunderground v.1.15,2013-11-23 13:15:00,
2013-11-23 08:24:00,36.2,25.6,30.12,NW,310,1.0,1.0,65,0.00,,,0.00,Wunderground v.1.15,2013-11-23 13:24:00,
2013-11-23 08:30:00,36.4,25.4,30.12,West,270,1.0,3.0,64,0.00,,,0.00,Wunderground v.1.15,2013-11-23 13:30:00,
2013-11-23 08:40:00,36.6,25.9,30.13,ENE,57,1.0,1.0,65,0.00,,,0.00,Wunderground v.1.15,2013-11-23 13:40:00,
2013-11-23 08:45:00,36.8,25.4,30.13,North,355,2.0,2.0,63,0.00,,,0.00,Wunderground v.1.15,2013-11-23 13:45:00,
2013-11-23 08:54:00,37.1,25.7,30.12,NNW,346,1.0,2.0,63,0.00,,,0.00,Wunderground v.1.15,2013-11-23 13:54:00,
2013-11-23 09:00:00,37.1,26.0,30.12,NW,306,1.0,1.0,64,0.00,,,0.00,Wunderground v.1.15,2013-11-23 14:00:00,
2013-11-23 09:09:00,37.1,25.7,30.12,NW,312,1.0,2.0,63,0.00,,,0.00,Wunderground v.1.15,2013-11-23 14:09:00,
2013-11-23 09:15:00,37.2,25.4,30.12,WNW,296,1.0,2.0,62,0.00,,,0.00,Wunderground v.1.15,2013-11-23 14:15:00,
2013-11-23 09:25:00,37.4,25.2,30.11,West,270,2.0,2.0,61,0.00,,,0.00,Wunderground v.1.15,2013-11-23 14:25:00,
2013-11-23 09:30:00,37.7,25.8,30.11,NNE,13,2.0,4.0,62,0.00,,,0.00,Wunderground v.1.15,2013-11-23 14:30:00,
2013-11-23 09:40:00,38.2,25.5,30.10,WNW,286,2.0,2.0,60,0.00,,,0.00,Wunderground v.1.15,2013-11-23 14:40:00,
2013-11-23 09:45:00,38.1,25.0,30.10,WSW,249,2.0,2.0,59,0.00,,,0.00,Wunderground v.1.15,2013-11-23 14:45:00,
2013-11-23 09:54:00,38.4,25.3,30.10,North,360,1.0,2.0,59,0.00,,,0.00,Wunderground v.1.15,2013-11-23 14:54:00,
2013-11-23 10:00:00,38.5,25.0,30.10,North,355,2.0,3.0,58,0.00,,,0.00,Wunderground v.1.15,2013-11-23 15:00:00,
2013-11-23 10:10:00,39.0,25.0,30.10,WNW,298,2.0,2.0,57,0.00,,,0.00,Wunderground v.1.15,2013-11-23 15:10:00,
2013-11-23 10:15:00,39.3,25.7,30.09,WNW,285,1.0,2.0,58,0.00,,,0.00,Wunderground v.1.15,2013-11-23 15:15:00,
2013-11-23 10:24:00,40.0,25.1,30.09,NNW,345,1.0,2.0,55,0.00,,,0.00,Wunderground v.1.15,2013-11-23 15:24:00,
2013-11-23 10:30:00,40.1,24.3,30.08,NW,316,2.0,2.0,53,0.00,,,0.00,Wunderground v.1.15,2013-11-23 15:30:00,
2013-11-23 10:39:00,40.5,24.2,30.08,West,266,2.0,3.0,52,0.00,,,0.00,Wunderground v.1.15,2013-11-23 15:39:00,
2013-11-23 10:45:00,40.9,25.1,30.07,NE,54,2.0,3.0,53,0.00,,,0.00,Wunderground v.1.15,2013-11-23 15:45:00,
2013-11-23 10:55:00,41.8,25.4,30.07,North,349,1.0,2.0,52,0.00,,,0.00,Wunderground v.1.15,2013-11-23 15:55:00,
2013-11-23 11:00:00,41.8,24.5,30.07,NNW,339,1.0,2.0,50,0.00,,,0.00,Wunderground v.1.15,2013-11-23 16:00:00,
2013-11-23 11:10:00,42.1,24.8,30.06,NW,311,2.0,2.0,50,0.00,,,0.00,Wunderground v.1.15,2013-11-23 16:10:00,
2013-11-23 11:15:00,42.2,24.9,30.06,WNW,291,2.0,2.0,50,0.00,,,0.00,Wunderground v.1.15,2013-11-23 16:15:00,
2013-11-23 11:25:00,42.2,25.3,30.06,West,277,1.0,2.0,51,0.00,,,0.00,Wunderground v.1.15,2013-11-23 16:25:00,
2013-11-23 11:30:00,42.7,24.4,30.05,WNW,302,1.0,1.0,48,0.00,,,0.00,Wunderground v.1.15,2013-11-23 16:30:00,
2013-11-23 11:40:00,43.5,24.6,30.04,SSE,156,1.0,1.0,47,0.00,,,0.00,Wunderground v.1.15,2013-11-23 16:40:00,
2013-11-23 11:45:00,43.8,25.9,30.04,West,277,1.0,1.0,49,0.00,,,0.00,Wunderground v.1.15,2013-11-23 16:45:00,
2013-11-23 11:54:00,44.4,25.4,30.03,WSW,250,1.0,2.0,47,0.00,,,0.00,Wunderground v.1.15,2013-11-23 16:54:00,
2013-11-23 12:00:00,44.5,24.5,30.03,West,275,2.0,2.0,45,0.00,,,0.00,Wunderground v.1.15,2013-11-23 17:00:00,
2013-11-23 12:09:00,44.3,23.7,30.03,West,262,2.0,2.0,44,0.00,,,0.00,Wunderground v.1.15,2013-11-23 17:09:00,
2013-11-23 12:15:00,44.6,23.5,30.02,West,280,2.0,2.0,43,0.00,,,0.00,Wunderground v.1.15,2013-11-23 17:15:00,
2013-11-23 12:25:00,45.1,24.5,30.01,SW,234,2.0,3.0,44,0.00,,,0.00,Wunderground v.1.15,2013-11-23 17:25:00,
2013-11-23 12:30:00,45.4,24.2,30.01,West,271,2.0,2.0,43,0.00,,,0.00,Wunderground v.1.15,2013-11-23 17:30:00,
2013-11-23 12:40:00,45.5,23.7,30.00,West,272,2.0,2.0,42,0.00,,,0.00,Wunderground v.1.15,2013-11-23 17:40:00,
2013-11-23 12:45:00,45.7,23.9,30.00,West,275,2.0,2.0,42,0.00,,,0.00,Wunderground v.1.15,2013-11-23 17:45:00,
2013-11-23 12:55:00,46.1,23.7,29.99,WSW,249,2.0,4.0,41,0.00,,,0.00,Wunderground v.1.15,2013-11-23 17:55:00,
2013-11-23 13:00:00,46.1,24.8,29.99,WSW,258,1.0,3.0,43,0.00,,,0.00,Wunderground v.1.15,2013-11-23 18:00:00,
2013-11-23 13:09:00,45.0,22.1,29.99,West,263,3.0,4.0,40,0.00,,,0.00,Wunderground v.1.15,2013-11-23 18:09:00,
2013-11-23 13:15:00,44.3,22.6,29.99,WNW,284,2.0,4.0,42,0.00,,,0.00,Wunderground v.1.15,2013-11-23 18:15:00,
2013-11-23 13:25:00,43.4,22.9,29.99,West,270,2.0,5.0,44,0.00,,,0.00,Wunderground v.1.15,2013-11-23 18:25:00,
2013-11-23 13:35:00,43.1,22.6,29.98,NW,317,2.0,3.0,44,0.00,,,0.00,Wunderground v.1.15,2013-11-23 18:35:00,
2013-11-23 13:40:00,43.2,22.7,29.98,North,355,2.0,2.0,44,0.00,,,0.00,Wunderground v.1.15,2013-11-23 18:40:00,
2013-11-23 13:45:00,43.2,23.3,29.98,West,269,2.0,2.0,45,0.00,,,0.00,Wunderground v.1.15,2013-11-23 18:45:00,
2013-11-23 13:55:00,43.2,22.2,29.98,NW,306,2.0,2.0,43,0.00,,,0.00,Wunderground v.1.15,2013-11-23 18:55:00,
2013-11-23 14:00:00,43.1,22.6,29.98,West,279,2.0,3.0,44,0.00,,,0.00,Wunderground v.1.15,2013-11-23 19:00:00,
2013-11-23 14:09:00,42.9,23.5,29.97,West,275,2.0,2.0,46,0.00,,,0.00,Wunderground v.1.15,2013-11-23 19:09:00,
2013-11-23 14:15:00,42.9,23.5,29.97,West,275,2.0,2.0,46,0.00,,,0.00,Wunderground v.1.15,2013-11-23 19:15:00,
2013-11-23 14:24:00,43.2,23.8,29.98,WNW,285,2.0,4.0,46,0.00,,,0.00,Wunderground v.1.15,2013-11-23 19:24:00,
2013-11-23 14:30:00,42.9,23.5,29.97,WNW,294,3.0,3.0,46,0.00,,,0.00,Wunderground v.1.15,2013-11-23 19:30:00,
2013-11-23 14:40:00,42.6,23.2,29.98,West,269,3.0,5.0,46,0.00,,,0.00,Wunderground v.1.15,2013-11-23 19:40:00,
2013-11-23 14:45:00,42.4,24.1,29.98,WSW,248,3.0,5.0,48,0.00,,,0.00,Wunderground v.1.15,2013-11-23 19:45:00,
2013-11-23 14:55:00,42.1,24.3,29.97,WSW,255,2.0,4.0,49,0.00,,,0.00,Wunderground v.1.15,2013-11-23 19:55:00,
2013-11-23 15:05:00,41.9,25.1,29.97,West,281,2.0,2.0,51,0.00,,,0.00,Wunderground v.1.15,2013-11-23 20:05:00,
2013-11-23 15:15:00,41.6,24.3,29.96,WNW,290,3.0,3.0,50,0.00,,,0.00,Wunderground v.1.15,2013-11-23 20:15:00,
2013-11-23 15:25:00,41.3,24.5,29.96,West,273,3.0,3.0,51,0.00,,,0.00,Wunderground v.1.15,2013-11-23 20:25:00,
2013-11-23 15:35:00,41.0,24.7,29.95,WSW,254,2.0,2.0,52,0.00,,,0.00,Wunderground v.1.15,2013-11-23 20:35:00,
2013-11-23 15:45:00,40.9,24.6,29.95,SW,230,2.0,2.0,52,0.00,,,0.00,Wunderground v.1.15,2013-11-23 20:45:00,
2013-11-23 15:54:00,40.7,23.5,29.94,WSW,241,2.0,2.0,50,0.00,,,0.00,Wunderground v.1.15,2013-11-23 20:54:00,
2013-11-23 16:04:00,40.5,23.3,29.94,West,269,3.0,3.0,50,0.00,,,0.00,Wunderground v.1.15,2013-11-23 21:04:00,
2013-11-23 16:09:00,40.5,23.8,29.95,West,275,3.0,3.0,51,0.00,,,0.00,Wunderground v.1.15,2013-11-23 21:09:00,
2013-11-23 16:15:00,40.4,23.7,29.95,West,260,2.0,2.0,51,0.00,,,0.00,Wunderground v.1.15,2013-11-23 21:15:00,
2013-11-23 16:24:00,40.3,24.1,29.95,SW,234,2.0,2.0,52,0.00,,,0.00,Wunderground v.1.15,2013-11-23 21:24:00,
2013-11-23 16:29:00,40.1,23.4,29.95,West,275,2.0,3.0,51,0.00,,,0.00,Wunderground v.1.15,2013-11-23 21:29:00,
2013-11-23 16:39:00,40.0,22.8,29.95,West,267,3.0,3.0,50,0.00,,,0.00,Wunderground v.1.15,2013-11-23 21:39:00,
2013-11-23 16:44:00,40.0,22.8,29.95,NNW,338,3.0,3.0,50,0.00,,,0.00,Wunderground v.1.15,2013-11-23 21:44:00,
2013-11-23 16:54:00,39.8,22.7,29.95,WSW,247,3.0,3.0,50,0.00,,,0.00,Wunderground v.1.15,2013-11-23 21:54:00,
2013-11-23 17:00:00,39.7,23.0,29.95,SW,232,3.0,3.0,51,0.00,,,0.00,Wunderground v.1.15,2013-11-23 22:00:00,
2013-11-23 17:09:00,39.6,22.9,29.95,NW,315,2.0,2.0,51,0.00,,,0.00,Wunderground v.1.15,2013-11-23 22:09:00,
2013-11-23 17:14:00,39.5,22.8,29.95,SW,232,2.0,3.0,51,0.00,,,0.00,Wunderground v.1.15,2013-11-23 22:14:00,
2013-11-23 17:24:00,39.6,22.5,29.96,WNW,288,2.0,2.0,50,0.00,,,0.00,Wunderground v.1.15,2013-11-23 22:24:00,
2013-11-23 17:29:00,39.8,22.7,29.96,West,266,3.0,3.0,50,0.00,,,0.00,Wunderground v.1.15,2013-11-23 22:29:00,
2013-11-23 17:39:00,39.9,23.2,29.96,West,267,3.0,3.0,51,0.00,,,0.00,Wunderground v.1.15,2013-11-23 22:39:00,
2013-11-23 17:44:00,39.7,24.0,29.97,WSW,251,3.0,3.0,53,0.00,,,0.00,Wunderground v.1.15,2013-11-23 22:44:00,
2013-11-23 17:54:00,38.9,24.9,29.96,West,275,3.0,3.0,57,0.00,,,0.00,Wunderground v.1.15,2013-11-23 22:54:00,
2013-11-23 18:00:00,38.6,25.5,29.96,West,274,3.0,3.0,59,0.00,,,0.00,Wunderground v.1.15,2013-11-23 23:00:00,
2013-11-23 18:09:00,38.2,25.1,29.97,West,263,1.0,3.0,59,0.00,,,0.00,Wunderground v.1.15,2013-11-23 23:09:00,
2013-11-23 18:15:00,38.1,25.0,29.97,West,280,2.0,4.0,59,0.00,,,0.00,Wunderground v.1.15,2013-11-23 23:15:00,
2013-11-23 18:24:00,38.0,24.1,29.97,West,274,3.0,4.0,57,0.00,,,0.00,Wunderground v.1.15,2013-11-23 23:24:00,
2013-11-23 18:30:00,38.0,24.1,29.97,West,281,3.0,3.0,57,0.00,,,0.00,Wunderground v.1.15,2013-11-23 23:30:00,
2013-11-23 18:34:00,37.8,23.9,29.97,West,271,3.0,3.0,57,0.00,,,0.00,Wunderground v.1.15,2013-11-23 23:34:00,
2013-11-23 18:39:00,37.7,23.4,29.97,WSW,251,3.0,3.0,56,0.00,,,0.00,Wunderground v.1.15,2013-11-23 23:39:00,
2013-11-23 18:44:00,37.6,23.3,29.98,West,273,3.0,3.0,56,0.00,,,0.00,Wunderground v.1.15,2013-11-23 23:44:00,
2013-11-23 18:54:00,37.8,23.5,30.00,NNW,342,3.0,6.0,56,0.00,,,0.00,Wunderground v.1.15,2013-11-23 23:54:00,
2013-11-23 18:59:00,35.9,24.1,30.01,NW,326,4.0,7.0,62,0.00,,,0.00,Wunderground v.1.15,2013-11-23 23:59:00,
2013-11-23 19:09:00,32.3,26.8,30.02,NW,313,6.0,6.0,80,0.00,,,0.00,Wunderground v.1.15,2013-11-24 00:09:00,
2013-11-23 19:15:00,31.7,27.1,30.02,West,278,3.0,6.0,83,0.00,,,0.00,Wunderground v.1.15,2013-11-24 00:15:00,
2013-11-23 19:24:00,31.3,26.1,30.01,West,273,2.0,3.0,81,0.00,,,0.00,Wunderground v.1.15,2013-11-24 00:24:00,
2013-11-23 19:30:00,31.5,26.0,30.01,WSW,246,2.0,2.0,80,0.00,,,0.00,Wunderground v.1.15,2013-11-24 00:30:00,
2013-11-23 19:39:00,31.9,25.5,30.01,North,355,2.0,2.0,77,0.00,,,0.00,Wunderground v.1.15,2013-11-24 00:39:00,
2013-11-23 19:45:00,32.2,25.8,30.02,West,266,1.0,2.0,77,0.00,,,0.00,Wunderground v.1.15,2013-11-24 00:45:00,
2013-11-23 19:54:00,32.5,24.8,30.02,SW,231,1.0,3.0,73,0.00,,,0.00,Wunderground v.1.15,2013-11-24 00:54:00,
2013-11-23 20:00:00,32.6,24.9,30.02,WSW,252,1.0,1.0,73,0.00,,,0.00,Wunderground v.1.15,2013-11-24 01:00:00,
2013-11-23 20:09:00,32.6,24.6,30.02,WSW,252,1.0,1.0,72,0.00,,,0.00,Wunderground v.1.15,2013-11-24 01:09:00,
2013-11-23 20:15:00,32.5,24.5,30.02,NW,311,1.0,1.0,72,0.00,,,0.00,Wunderground v.1.15,2013-11-24 01:15:00,
2013-11-23 20:24:00,32.4,23.0,30.02,WSW,256,1.0,3.0,68,0.00,,,0.00,Wunderground v.1.15,2013-11-24 01:24:00,
2013-11-23 20:31:00,32.4,21.6,30.03,WNW,295,2.0,2.0,64,0.00,,,0.00,Wunderground v.1.15,2013-11-24 01:31:00,
2013-11-23 20:39:00,32.6,21.0,30.03,WNW,302,2.0,2.0,62,0.00,,,0.00,Wunderground v.1.15,2013-11-24 01:39:00,
2013-11-23 20:49:00,32.7,19.1,30.03,NNW,342,3.0,3.0,57,0.00,,,0.00,Wunderground v.1.15,2013-11-24 01:49:00,
2013-11-23 21:00:00,32.6,16.9,30.04,NNE,16,4.0,10.0,52,0.00,,,0.00,Wunderground v.1.15,2013-11-24 02:00:00,
2013-11-23 21:09:00,32.4,16.7,30.04,WNW,300,4.0,4.0,52,0.00,,,0.00,Wunderground v.1.15,2013-11-24 02:09:00,
2013-11-23 21:15:00,32.3,15.7,30.04,NNW,347,4.0,4.0,50,0.00,,,0.00,Wunderground v.1.15,2013-11-24 02:15:00,
2013-11-23 21:24:00,32.2,15.6,30.04,West,273,3.0,4.0,50,0.00,,,0.00,Wunderground v.1.15,2013-11-24 02:24:00,
2013-11-23 21:30:00,32.1,15.5,30.04,WNW,302,3.0,3.0,50,0.00,,,0.00,Wunderground v.1.15,2013-11-24 02:30:00,
2013-11-23 21:39:00,31.8,15.7,30.04,WNW,286,3.0,3.0,51,0.00,,,0.00,Wunderground v.1.15,2013-11-24 02:39:00,
2013-11-23 21:44:00,31.6,15.5,30.04,West,269,3.0,3.0,51,0.00,,,0.00,Wunderground v.1.15,2013-11-24 02:44:00,
2013-11-23 21:54:00,31.3,15.2,30.05,NNW,330,3.0,3.0,51,0.00,,,0.00,Wunderground v.1.15,2013-11-24 02:54:00,
2013-11-23 21:59:00,31.2,14.7,30.05,WNW,302,3.0,5.0,50,0.00,,,0.00,Wunderground v.1.15,2013-11-24 02:59:00,
2013-11-23 22:09:00,31.0,15.0,30.05,West,264,2.0,3.0,51,0.00,,,0.00,Wunderground v.1.15,2013-11-24 03:09:00,
2013-11-23 22:14:00,30.8,14.8,30.05,WSW,242,2.0,4.0,51,0.00,,,0.00,Wunderground v.1.15,2013-11-24 03:14:00,
2013-11-23 22:24:00,30.7,14.7,30.05,WNW,284,2.0,3.0,51,0.00,,,0.00,Wunderground v.1.15,2013-11-24 03:24:00,
2013-11-23 22:29:00,30.6,13.7,30.05,West,279,2.0,3.0,49,0.00,,,0.00,Wunderground v.1.15,2013-11-24 03:29:00,
2013-11-23 22:39:00,30.4,13.0,30.06,West,267,3.0,4.0,48,0.00,,,0.00,Wunderground v.1.15,2013-11-24 03:39:00,
2013-11-23 22:44:00,30.2,12.8,30.07,WNW,302,3.0,4.0,48,0.00,,,0.00,Wunderground v.1.15,2013-11-24 03:44:00,
2013-11-23 22:54:00,29.9,11.6,30.07,West,270,3.0,4.0,46,0.00,,,0.00,Wunderground v.1.15,2013-11-24 03:54:00,
2013-11-23 22:59:00,29.7,10.9,30.06,WNW,285,3.0,3.0,45,0.00,,,0.00,Wunderground v.1.15,2013-11-24 03:59:00,
2013-11-23 23:09:00,29.5,10.2,30.07,West,279,3.0,3.0,44,0.00,,,0.00,Wunderground v.1.15,2013-11-24 04:09:00,
2013-11-23 23:14:00,29.4,10.1,30.07,NW,319,2.0,3.0,44,0.00,,,0.00,Wunderground v.1.15,2013-11-24 04:14:00,
2013-11-23 23:24:00,28.9,11.6,30.08,WNW,294,4.0,4.0,48,0.00,,,0.00,Wunderground v.1.15,2013-11-24 04:24:00,
2013-11-23 23:29:00,28.3,11.6,30.08,West,277,4.0,4.0,49,0.00,,,0.00,Wunderground v.1.15,2013-11-24 04:29:00,
2013-11-23 23:39:00,27.8,11.5,30.08,West,274,5.0,6.0,50,0.00,,,0.00,Wunderground v.1.15,2013-11-24 04:39:00,
2013-11-23 23:44:00,27.5,11.3,30.08,WNW,296,4.0,6.0,50,0.00,,,0.00,Wunderground v.1.15,2013-11-24 04:44:00,
2013-11-23 23:54:00,27.2,10.5,30.08,West,274,4.0,6.0,49,0.00,,,0.00,Wunderground v.1.15,2013-11-24 04:54:00,
2013-11-23 23:59:00,27.1,10.4,30.09,WNW,284,3.0,3.0,49,0.00,,,0.00,Wunderground v.1.15,2013-11-24 04:59:00,